»·PEaware :: UAL511 KLAX-KFAT

UAL511 :: KLAX-KFAT

FLIGHT INFORMATION

Flight Status: Arrived
Operator:
United Airlines
More flights by this operator :: More flights under this callsign
Pilot: Dave M. (4986)
Aircraft: BOEING 737-200
(B732)
More flights by this aircraft type
Origin: KLAX Los Angeles Intl
United States
Destination: KFAT Fresno Yosemite Intl
United States
More flights between these airports :: More routes between these airports
Route: GMN7 GMN TTE ALTTA8
File this flight plan on PilotEdge
Remarks:
Altitude:
(Current/Filed)
22,000ft
Speed:
(Current/Filed)
450kts
Departed: 23-Jan-18 10:08 PM
Arrived: 23-Jan-18 10:46 PM
Distance/Time
Traveled:
181nm/0:38
Distance/Time
To Go:
Arrived

Flight Plot

Page will automatically refresh every two minutes.

Flight plan parsing failed; only flown route is shown


Map Options




Map Legend


Flown Route
Filed Route
Departure Airport
Arrival Airport
Navaid (VOR, NDB)
Fix

Horizontal Profiles

Position Reports

Time Latitude Longitude Heading Altitude Ground
Speed
23-Jan-18 21:57 33.941657 -118.400209 82 112ft 0kts
23-Jan-18 21:58 33.941657 -118.400209 82 112ft 0kts
23-Jan-18 21:59 33.941657 -118.400209 82 112ft 0kts
23-Jan-18 22:00 33.941657 -118.400209 82 112ft 0kts
23-Jan-18 22:01 33.941657 -118.400209 82 112ft 0kts
23-Jan-18 22:02 33.941657 -118.400209 82 112ft 0kts
23-Jan-18 22:03 33.941657 -118.400209 82 112ft 0kts
23-Jan-18 22:04 33.941658 -118.400206 82 112ft 0kts
23-Jan-18 22:05 33.941615 -118.400658 102 112ft 2kts
23-Jan-18 22:06 33.941847 -118.400904 173 112ft 0kts
23-Jan-18 22:07 33.941846 -118.400904 173 112ft 0kts
23-Jan-18 22:08 33.941693 -118.400882 173 112ft 6kts
23-Jan-18 22:09 33.940440 -118.400683 171 112ft 0kts
23-Jan-18 22:10 33.938790 -118.399887 85 112ft 14kts
23-Jan-18 22:11 33.939444 -118.393368 83 112ft 19kts
23-Jan-18 22:12 33.940150 -118.386856 81 112ft 19kts
23-Jan-18 22:13 33.940707 -118.381073 82 112ft 9kts
23-Jan-18 22:14 33.938782 -118.390519 263 112ft 129kts
23-Jan-18 22:15 33.930150 -118.458426 258 2067ft 256kts
23-Jan-18 22:16 33.931597 -118.542501 311 5971ft 270kts
23-Jan-18 22:17 34.006890 -118.557908 2 8016ft 332kts
23-Jan-18 22:18 34.097428 -118.554115 2 8791ft 339kts
23-Jan-18 22:19 34.188340 -118.550153 2 11998ft 332kts
23-Jan-18 22:20 34.270945 -118.593064 325 14178ft 346kts
23-Jan-18 22:21 34.357199 -118.648193 335 16212ft 357kts
23-Jan-18 22:22 34.447738 -118.694637 336 18012ft 366kts
23-Jan-18 22:23 34.543180 -118.739968 337 19605ft 374kts
23-Jan-18 22:24 34.639605 -118.785004 337 21023ft 380kts
23-Jan-18 22:25 34.738619 -118.831179 336 22326ft 390kts
23-Jan-18 22:26 34.847105 -118.879326 340 22307ft 439kts
23-Jan-18 22:27 34.967240 -118.927201 340 22574ft 466kts
23-Jan-18 22:28 35.088674 -118.965329 354 22292ft 444kts
23-Jan-18 22:29 35.206018 -118.990522 342 22275ft 438kts
23-Jan-18 22:30 35.322982 -119.033405 340 22274ft 440kts
23-Jan-18 22:31 35.439898 -119.078208 344 22270ft 444kts
23-Jan-18 22:32 35.563279 -119.065938 4 22276ft 450kts
23-Jan-18 22:33 35.687248 -119.049911 4 20832ft 451kts
23-Jan-18 22:34 35.802883 -119.034961 4 18314ft 384kts
23-Jan-18 22:35 35.901867 -119.022177 4 15691ft 340kts
23-Jan-18 22:36 35.985192 -119.045855 325 14000ft 299kts
23-Jan-18 22:37 36.064059 -119.096198 339 14003ft 338kts
23-Jan-18 22:38 36.150481 -119.134508 338 12696ft 349kts
23-Jan-18 22:39 36.239984 -119.176430 338 10819ft 331kts
23-Jan-18 22:40 36.318462 -119.213879 338 8963ft 287kts
23-Jan-18 22:41 36.389716 -119.248776 338 6896ft 268kts
23-Jan-18 22:42 36.456472 -119.282711 338 5160ft 244kts
23-Jan-18 22:43 36.517579 -119.313280 338 3939ft 250kts
23-Jan-18 22:44 36.564726 -119.364342 309 3126ft 231kts
23-Jan-18 22:45 36.605596 -119.422421 309 1809ft 198kts
23-Jan-18 22:46 36.638520 -119.476504 306 1804ft 200kts
23-Jan-18 22:47 36.670432 -119.531431 306 1788ft 189kts
23-Jan-18 22:48 36.701104 -119.584878 306 1790ft 188kts
23-Jan-18 22:49 36.728605 -119.633013 306 1729ft 171kts
23-Jan-18 22:50 36.752306 -119.674676 305 917ft 128kts
23-Jan-18 22:51 36.772482 -119.709931 305 337ft 127kts
23-Jan-18 22:52 36.776531 -119.719250 275 336ft 0kts
23-Jan-18 22:53 36.774930 -119.720685 204 336ft 15kts
23-Jan-18 22:54 36.772029 -119.719299 114 336ft 0kts
23-Jan-18 22:55 36.771848 -119.719024 129 336ft 0kts
23-Jan-18 22:56 36.771848 -119.719024 129 336ft 0kts
23-Jan-18 22:57 36.771848 -119.719024 129 336ft 0kts
23-Jan-18 22:58 36.771848 -119.719024 129 336ft 0kts
23-Jan-18 22:59 36.771848 -119.719024 129 336ft 0kts
23-Jan-18 23:00 36.771848 -119.719024 129 336ft 0kts
23-Jan-18 23:01 36.771848 -119.719024 129 336ft 0kts
23-Jan-18 23:02 36.771848 -119.719024 129 336ft 0kts
23-Jan-18 23:03 36.771848 -119.719024 129 336ft 0kts
23-Jan-18 23:04 36.771848 -119.719024 129 336ft 0kts
23-Jan-18 23:05 36.771848 -119.719024 129 336ft 0kts
23-Jan-18 23:06 36.771848 -119.719024 129 336ft 0kts

Navigation Log

Ident Type
Flight plan parsing failed, navigation log unavailable